| Today | Week | Month | Season | Year | Rain Year | ||
|---|---|---|---|---|---|---|---|
| Outside Temperature | °F |
76.8 01:34:40 PM 47.2 07:28:25 AM |
76.8 01:34:40 PM (Sunday) 47.2 07:28:25 AM (Sunday) |
76.8 09/06/2026 01:34:40 PM 46.6 09/04/2026 06:57:24 AM |
76.8 09/06/2026 01:34:40 PM 46.6 09/04/2026 06:57:24 AM |
83.9 08/20/2026 02:34:00 PM 46.6 09/04/2026 06:57:24 AM |
83.9 08/20/2026 02:34:00 PM 46.6 09/04/2026 06:57:24 AM |
| Heat Index | °F |
76.8 01:34:40 PM 45.9 07:28:25 AM |
76.8 01:34:40 PM (Sunday) 45.9 07:28:25 AM (Sunday) |
76.8 09/06/2026 01:34:40 PM 45.3 09/04/2026 06:57:24 AM |
76.8 09/06/2026 01:34:40 PM 45.3 09/04/2026 06:57:24 AM |
86.4 08/25/2026 12:41:10 PM 45.3 09/04/2026 06:57:24 AM |
86.4 08/25/2026 12:41:10 PM 45.3 09/04/2026 06:57:24 AM |
| Wind Chill | °F |
76.8 01:34:40 PM 47.2 07:28:25 AM |
76.8 01:34:40 PM (Sunday) 47.2 07:28:25 AM (Sunday) |
76.8 09/06/2026 01:34:40 PM 46.6 09/04/2026 06:57:24 AM |
76.8 09/06/2026 01:34:40 PM 46.6 09/04/2026 06:57:24 AM |
83.9 08/20/2026 02:34:00 PM 46.6 09/04/2026 06:57:24 AM |
83.9 08/20/2026 02:34:00 PM 46.6 09/04/2026 06:57:24 AM |
| Dew Point | °F |
60.3 01:33:08 PM 44.7 07:28:25 AM |
60.3 01:33:08 PM (Sunday) 44.7 07:28:25 AM (Sunday) |
60.7 09/05/2026 11:58:34 AM 44.7 09/04/2026 06:57:24 AM |
60.7 09/05/2026 11:58:34 AM 44.7 09/04/2026 06:57:24 AM |
66.5 08/25/2026 12:41:10 PM 44.7 09/04/2026 06:57:24 AM |
66.5 08/25/2026 12:41:10 PM 44.7 09/04/2026 06:57:24 AM |
| Outside Humidity | % |
93 07:58:16 AM 54 01:08:20 PM |
93 07:58:16 AM (Sunday) 54 01:08:20 PM (Sunday) |
95 09/04/2026 08:45:50 AM 54 09/06/2026 01:08:20 PM |
95 09/04/2026 08:45:50 AM 54 09/06/2026 01:08:20 PM |
95 08/19/2026 08:37:49 AM 49 08/20/2026 02:18:46 PM |
95 08/19/2026 08:37:49 AM 49 08/20/2026 02:18:46 PM |
| Barometer | inHg |
30.367 08:38:02 AM 30.303 02:19:02 PM |
30.367 08:38:02 AM (Sunday) 30.303 02:19:02 PM (Sunday) |
30.381 09/05/2026 10:58:01 AM 29.830 09/02/2026 04:31:00 PM |
30.381 09/05/2026 10:58:01 AM 29.830 09/02/2026 04:31:00 PM |
30.549 08/16/2026 10:25:00 AM 29.830 09/02/2026 04:31:00 PM |
30.549 08/16/2026 10:25:00 AM 29.830 09/02/2026 04:31:00 PM |
| Max Wind |
mph ° |
6 173 10:11:54 AM |
6 173 10:11:54 AM (Sunday) |
16 242 09/02/2026 07:18:45 PM |
16 242 09/02/2026 07:18:45 PM |
16 242 09/02/2026 07:18:45 PM |
16 242 09/02/2026 07:18:45 PM |
| Average Wind | mph | 0 | 0 | 0 | 0 | 0 | 0 |
| RMS Wind | mph | 1 | 1 | 1 | 1 | 1 | 1 |
|
Vector Average Vector Direction |
mph ° |
0 355 |
0 355 |
0 012 |
0 012 |
0 004 |
0 004 |
| Rain | in | 0.00 | 0.00 | 0.10 | 0.10 | 0.28 | 0.28 |
| Rain Rate | in/h |
0.00 12:00:01 AM |
0.00 12:00:01 AM (Sunday) |
0.12 09/03/2026 05:35:01 AM |
0.12 09/03/2026 05:35:01 AM |
0.25 08/22/2026 06:54:22 PM |
0.25 08/22/2026 06:54:22 PM |
| Evapotranspiration | in | 0.00 | 0.00 | 0.00 | 0.00 | 0.00 | 0.00 |
| Inside Temperature | °F |
78.5 02:06:02 PM 71.4 02:47:01 AM |
78.5 02:06:02 PM (Sunday) 71.4 02:47:01 AM (Sunday) |
79.4 09/04/2026 03:23:01 PM 71.4 09/06/2026 02:47:01 AM |
79.4 09/04/2026 03:23:01 PM 71.4 09/06/2026 02:47:01 AM |
81.8 08/20/2026 03:27:02 PM 62.7 08/30/2026 06:15:00 AM |
81.8 08/20/2026 03:27:02 PM 62.7 08/30/2026 06:15:00 AM |
| Inside Humidity | % |
54 02:19:01 AM 46 11:03:02 AM |
54 02:19:01 AM (Sunday) 46 11:03:02 AM (Sunday) |
57 09/01/2026 10:04:06 PM 44 09/04/2026 04:06:02 PM |
57 09/01/2026 10:04:06 PM 44 09/04/2026 04:06:02 PM |
68 08/28/2026 07:45:01 AM 44 08/20/2026 06:14:03 PM |
68 08/28/2026 07:45:01 AM 44 08/20/2026 06:14:03 PM |
| Latitude | 48° 08.18' N |
| Longitude | 123° 44.98' W |
| Altitude | 652 feet |
| WeeWX | 5.5.0 |